Time;durP1;ratioP1;P1;durP2;ratioP2;P2;SDS_P1;SDS_P2;PMS_P1;PMS_P2;Temp;Humidity;BMP_temperature;BMP_pressure;BME280_temperature;BME280_humidity;BME280_pressure;Samples;Min_cycle;Max_cycle;Signal;HPM_P1;HPM_P2
2022/09/10 00:02:01;;;;;;;11.98;11.15;;;;;;;14.31;100.00;100897.09;5067701;28;20477;-75
2022/09/10 00:04:27;;;;;;;11.45;10.60;;;;;;;14.42;100.00;100901.19;5081079;28;20423;-75
2022/09/10 00:06:53;;;;;;;13.02;12.15;;;;;;;14.41;100.00;100899.50;5073436;28;20035;-74
2022/09/10 00:09:18;;;;;;;14.75;13.77;;;;;;;14.49;100.00;100909.28;5073229;28;20032;-74
2022/09/10 00:11:45;;;;;;;16.05;14.95;;;;;;;14.51;100.00;100907.28;5077507;28;20035;-74
2022/09/10 00:14:18;;;;;;;14.82;13.93;;;;;;;14.55;100.00;100911.28;5076723;28;20031;-74
2022/09/10 00:16:44;;;;;;;15.77;14.80;;;;;;;14.38;100.00;100887.41;5074026;28;20031;-74
2022/09/10 00:19:09;;;;;;;17.00;16.08;;;;;;;14.58;100.00;100913.56;5060589;28;20036;-74
2022/09/10 00:21:35;;;;;;;18.63;17.50;;;;;;;14.60;100.00;100922.19;5078112;28;20016;-74
2022/09/10 00:24:01;;;;;;;19.20;17.60;;;;;;;14.53;100.00;100905.28;5056462;28;20634;-74
2022/09/10 00:26:30;;;;;;;18.63;17.38;;;;;;;14.53;100.00;100905.28;5075277;28;20039;-75
2022/09/10 00:29:00;;;;;;;20.35;19.25;;;;;;;14.55;100.00;100898.00;5085465;28;20024;-74
2022/09/10 00:31:28;;;;;;;21.02;19.83;;;;;;;14.52;100.00;100909.75;5079365;28;20369;-74
2022/09/10 00:33:53;;;;;;;18.63;17.42;;;;;;;14.55;100.00;100917.41;5074825;28;20128;-74
2022/09/10 00:36:23;;;;;;;20.73;19.50;;;;;;;14.54;100.00;100917.53;5076967;28;20449;-74
2022/09/10 00:38:49;;;;;;;18.70;17.63;;;;;;;14.54;100.00;100912.22;5082680;28;20646;-74
2022/09/10 00:41:17;;;;;;;23.75;22.48;;;;;;;14.37;100.00;100907.03;5074897;28;20389;-74
2022/09/10 00:43:48;;;;;;;19.38;18.25;;;;;;;14.43;100.00;100925.91;5080774;28;20036;-74
2022/09/10 00:46:36;;;;;;;19.37;18.07;;;;;;;14.22;100.00;100895.47;5079851;28;20039;-74
2022/09/10 00:49:09;;;;;;;19.13;17.75;;;;;;;14.26;100.00;100911.88;5070631;28;20796;-74
2022/09/10 00:51:35;;;;;;;16.40;15.32;;;;;;;14.32;100.00;100925.28;5083229;28;20110;-74
2022/09/10 00:54:02;;;;;;;15.43;14.40;;;;;;;14.29;100.00;100928.28;5058366;28;20503;-75
2022/09/10 00:56:28;;;;;;;14.02;13.23;;;;;;;14.30;100.00;100935.25;5078167;28;20024;-74
2022/09/10 00:58:54;;;;;;;12.60;11.68;;;;;;;14.29;100.00;100925.63;5083709;28;20067;-74
2022/09/10 01:01:21;;;;;;;15.20;14.00;;;;;;;14.19;100.00;100903.78;5073077;28;20024;-74
2022/09/10 01:03:48;;;;;;;14.90;13.90;;;;;;;14.33;100.00;100926.94;5067216;28;20083;-75
2022/09/10 01:06:14;;;;;;;15.75;14.55;;;;;;;14.26;100.00;100918.00;5079271;28;20056;-75
2022/09/10 01:08:40;;;;;;;15.02;14.13;;;;;;;14.27;100.00;100935.59;5075406;28;20384;-75
2022/09/10 01:11:25;;;;;;;14.73;13.35;;;;;;;14.35;100.00;100937.38;5080473;28;20032;-75
2022/09/10 01:14:18;;;;;;;15.20;14.00;;;;;;;14.36;100.00;100936.38;5076152;28;20076;-74
2022/09/10 01:17:12;;;;;;;17.92;16.25;;;;;;;14.42;100.00;100946.31;5086512;28;20036;-75
2022/09/10 01:20:19;;;;;;;19.40;18.13;;;;;;;14.46;100.00;100939.69;5086457;28;20028;-75
2022/09/10 01:23:12;;;;;;;20.15;18.65;;;;;;;14.42;100.00;100932.22;5010749;28;20505;-75
2022/09/10 01:26:02;;;;;;;19.27;17.92;;;;;;;14.37;100.00;100936.22;5010439;28;20514;-75
2022/09/10 01:28:41;;;;;;;20.98;19.30;;;;;;;14.33;100.00;100945.53;5015978;28;20109;-74
2022/09/10 01:31:17;;;;;;;18.88;17.55;;;;;;;14.31;100.00;100934.25;5011298;28;20041;-74
2022/09/10 01:34:09;;;;;;;19.45;18.20;;;;;;;14.33;100.00;100940.22;5010602;28;20042;-74
2022/09/10 01:36:39;;;;;;;17.67;16.35;;;;;;;14.29;100.00;100930.94;5009997;28;20550;-75
2022/09/10 01:39:06;;;;;;;19.20;17.83;;;;;;;14.41;100.00;100949.97;5019071;28;20122;-75
2022/09/10 01:41:31;;;;;;;20.52;19.10;;;;;;;14.38;100.00;100950.31;4994972;28;20080;-75
2022/09/10 01:43:57;;;;;;;20.55;18.83;;;;;;;14.28;100.00;100923.97;5020220;28;20037;-75
2022/09/10 01:46:52;;;;;;;19.80;18.58;;;;;;;14.39;100.00;100939.53;4995913;28;20038;-75
2022/09/10 01:49:31;;;;;;;19.73;18.30;;;;;;;14.39;100.00;100939.53;5009586;28;20038;-75
2022/09/10 01:52:14;;;;;;;22.05;20.45;;;;;;;14.40;100.00;100943.84;5011086;28;20033;-75
2022/09/10 01:55:06;;;;;;;19.95;18.45;;;;;;;14.36;100.00;100941.69;5011907;28;20505;-75
2022/09/10 01:58:04;;;;;;;20.85;19.55;;;;;;;14.31;100.00;100939.56;5062836;28;20078;-75
2022/09/10 02:00:32;;;;;;;22.70;20.73;;;;;;;14.31;100.00;100936.09;5082745;28;20015;-76
2022/09/10 02:03:15;;;;;;;18.77;17.42;;;;;;;14.39;100.00;100947.50;5068009;28;20009;-74
2022/09/10 02:05:43;;;;;;;21.38;19.50;;;;;;;14.35;100.00;100943.53;5080915;28;20432;-74
2022/09/10 02:08:15;;;;;;;21.00;19.27;;;;;;;14.34;100.00;100943.69;5079094;28;20374;-76
2022/09/10 02:10:58;;;;;;;22.35;20.33;;;;;;;14.32;100.00;100935.91;5082059;28;20028;-75
2022/09/10 02:13:24;;;;;;;19.75;18.15;;;;;;;14.33;100.00;100934.09;5075759;28;20043;-75
2022/09/10 02:15:53;;;;;;;20.58;19.08;;;;;;;14.35;100.00;100932.06;5082581;28;20047;-75
2022/09/10 02:18:19;;;;;;;22.15;20.17;;;;;;;14.39;100.00;100936.88;5086424;28;20026;-75
2022/09/10 02:20:48;;;;;;;20.13;18.60;;;;;;;14.36;100.00;100931.91;5080078;28;20119;-75
2022/09/10 02:23:18;;;;;;;20.13;18.83;;;;;;;14.37;100.00;100938.88;5081170;28;20028;-75
2022/09/10 02:25:44;;;;;;;22.77;21.27;;;;;;;14.31;100.00;100931.59;5079061;28;20310;-76
2022/09/10 02:28:10;;;;;;;21.73;20.05;;;;;;;14.22;100.00;100923.81;5071432;28;20075;-75
2022/09/10 02:30:35;;;;;;;20.13;18.65;;;;;;;14.25;100.00;100939.44;5081066;28;20067;-75
2022/09/10 02:33:01;;;;;;;19.52;18.02;;;;;;;14.24;100.00;100937.75;5057091;28;20028;-75
2022/09/10 02:35:27;;;;;;;19.25;17.58;;;;;;;14.31;100.00;100936.09;5073239;28;20052;-75
2022/09/10 02:37:52;;;;;;;19.35;17.55;;;;;;;14.36;100.00;100931.91;5079470;28;20047;-75
2022/09/10 02:40:20;;;;;;;19.63;18.10;;;;;;;14.31;100.00;100928.13;5084773;28;20028;-76
2022/09/10 02:42:46;;;;;;;19.60;18.15;;;;;;;14.29;100.00;100930.94;5076214;28;20055;-75
2022/09/10 02:45:13;;;;;;;23.65;22.00;;;;;;;14.31;100.00;100942.22;5077722;28;20025;-75
2022/09/10 02:47:38;;;;;;;24.05;22.58;;;;;;;14.32;100.00;100943.03;5081269;28;20034;-75
2022/09/10 02:50:06;;;;;;;23.50;21.98;;;;;;;14.27;100.00;100932.13;5073057;28;20393;-75
2022/09/10 02:52:32;;;;;;;24.65;22.95;;;;;;;14.44;100.00;100948.78;5083931;28;20040;-75
2022/09/10 02:54:58;;;;;;;23.92;22.17;;;;;;;14.43;100.00;100941.84;5076656;28;20028;-75
2022/09/10 02:57:24;;;;;;;23.35;21.55;;;;;;;14.54;100.00;100950.22;5076484;28;20094;-75
2022/09/10 02:59:50;;;;;;;23.02;21.40;;;;;;;14.58;100.00;100948.09;5078407;28;20803;-75
2022/09/10 03:02:15;;;;;;;29.35;27.33;;;;;;;14.39;100.00;100915.63;5076438;28;20027;-75
2022/09/10 03:04:40;;;;;;;28.55;26.52;;;;;;;14.56;100.00;100936.81;5063936;28;20028;-75
2022/09/10 03:07:06;;;;;;;30.13;28.27;;;;;;;14.64;100.00;100933.31;5079111;28;20403;-75
2022/09/10 03:09:31;;;;;;;30.88;28.85;;;;;;;14.59;100.00;100923.22;5075743;28;20020;-75
2022/09/10 03:11:56;;;;;;;32.65;30.35;;;;;;;14.54;100.00;100931.66;5074773;28;20104;-75
2022/09/10 03:14:23;;;;;;;31.95;30.00;;;;;;;14.46;100.00;100933.50;5079120;28;20538;-76
2022/09/10 03:16:49;;;;;;;34.13;31.08;;;;;;;14.28;100.00;100923.97;5079659;28;20040;-75
2022/09/10 03:19:15;;;;;;;26.95;25.25;;;;;;;14.34;100.00;100939.22;5076740;28;20031;-75
2022/09/10 03:21:41;;;;;;;24.77;22.95;;;;;;;14.31;100.00;100931.59;5079869;28;20020;-75
2022/09/10 03:24:09;;;;;;;25.27;23.38;;;;;;;14.35;100.00;100935.56;5072798;28;20378;-75
2022/09/10 03:26:34;;;;;;;27.27;25.17;;;;;;;14.36;100.00;100942.53;5085358;28;20043;-75
2022/09/10 03:29:00;;;;;;;27.23;25.05;;;;;;;14.28;100.00;100934.59;5077161;28;20086;-75
2022/09/10 03:31:29;;;;;;;26.15;23.98;;;;;;;14.29;100.00;100940.75;5080758;28;20031;-75
2022/09/10 03:33:56;;;;;;;25.15;23.25;;;;;;;14.26;100.00;100941.06;5079919;28;20056;-75
2022/09/10 03:36:22;;;;;;;24.83;22.67;;;;;;;14.30;100.00;100940.56;5075514;28;20066;-75
2022/09/10 03:38:47;;;;;;;22.67;20.75;;;;;;;14.33;100.00;100942.06;5077226;28;20044;-75
2022/09/10 03:41:13;;;;;;;24.02;22.20;;;;;;;14.33;100.00;100948.19;5075243;28;20032;-75
2022/09/10 03:43:38;;;;;;;25.50;22.80;;;;;;;14.19;100.00;100931.13;5076330;28;20161;-75
2022/09/10 03:46:04;;;;;;;24.85;22.70;;;;;;;14.14;100.00;100927.34;5073183;28;20020;-75
2022/09/10 03:48:29;;;;;;;27.20;23.42;;;;;;;14.22;100.00;100945.91;5051016;28;20020;-75
2022/09/10 03:50:55;;;;;;;22.30;19.95;;;;;;;14.19;100.00;100943.59;5078894;28;20445;-75
2022/09/10 03:53:21;;;;;;;25.20;23.17;;;;;;;14.29;100.00;100946.88;5078114;28;20024;-75
2022/09/10 03:55:48;;;;;;;23.90;21.90;;;;;;;14.39;100.00;100963.44;5075708;28;20020;-75
2022/09/10 03:58:15;;;;;;;28.10;25.58;;;;;;;14.38;100.00;100961.75;5080021;28;20021;-76
2022/09/10 04:00:41;;;;;;;29.20;26.77;;;;;;;14.37;100.00;100949.50;5079032;28;20097;-75
2022/09/10 04:03:07;;;;;;;27.05;25.05;;;;;;;14.56;100.00;100958.88;5072980;28;20132;-75
2022/09/10 04:05:33;;;;;;;29.42;27.42;;;;;;;14.64;100.00;100960.69;5076463;28;20100;-75
2022/09/10 04:08:00;;;;;;;33.38;30.92;;;;;;;14.66;100.00;100955.22;5079191;28;20168;-75
2022/09/10 04:10:26;;;;;;;39.50;36.22;;;;;;;14.53;100.00;100947.78;5072730;28;20474;-75
2022/09/10 04:12:52;;;;;;;35.33;32.95;;;;;;;14.48;100.00;100942.97;5080970;28;20484;-75
2022/09/10 04:15:18;;;;;;;34.33;31.98;;;;;;;14.57;100.00;100955.25;5070192;28;20033;-75
2022/09/10 04:17:45;;;;;;;37.22;34.58;;;;;;;14.51;100.00;100952.44;5061067;28;20037;-75
2022/09/10 04:20:10;;;;;;;35.05;32.30;;;;;;;14.44;100.00;100940.81;5076876;28;20082;-75
2022/09/10 04:22:36;;;;;;;32.92;30.65;;;;;;;14.63;100.00;100964.34;5075672;28;20043;-75
2022/09/10 04:25:01;;;;;;;31.45;28.88;;;;;;;14.71;100.00;100960.81;5076045;28;20103;-75
2022/09/10 04:27:27;;;;;;;35.03;32.45;;;;;;;14.60;100.00;100943.44;5077059;28;20027;-75
2022/09/10 04:29:53;;;;;;;37.63;35.28;;;;;;;14.63;100.00;100948.41;5077015;28;20522;-75
2022/09/10 04:32:18;;;;;;;35.03;33.00;;;;;;;14.65;100.00;100948.22;5078282;28;20028;-75
2022/09/10 04:34:44;;;;;;;39.17;36.65;;;;;;;14.82;100.00;100963.91;5055664;28;20056;-75
2022/09/10 04:37:10;;;;;;;41.90;38.80;;;;;;;14.85;100.00;100969.88;5076734;28;20070;-75
2022/09/10 04:39:35;;;;;;;39.92;37.55;;;;;;;14.77;100.00;100965.44;5074134;28;20103;-75
2022/09/10 04:42:02;;;;;;;38.83;36.22;;;;;;;14.72;100.00;100954.50;5080066;28;20494;-75
2022/09/10 04:44:28;;;;;;;45.08;41.65;;;;;;;14.68;100.00;100967.31;5071764;28;20025;-76
2022/09/10 04:46:54;;;;;;;38.92;36.22;;;;;;;14.51;100.00;100960.41;5077309;28;20036;-75
2022/09/10 04:49:20;;;;;;;37.28;34.45;;;;;;;14.48;100.00;100972.19;5075167;28;20027;-75
2022/09/10 04:51:45;;;;;;;34.45;32.08;;;;;;;14.52;100.00;100970.00;5078562;28;20044;-75
2022/09/10 04:54:14;;;;;;;34.20;31.95;;;;;;;14.52;100.00;100962.84;5079737;28;20401;-75
2022/09/10 04:56:39;;;;;;;37.58;34.65;;;;;;;14.58;100.00;100970.16;5075709;28;20039;-75
2022/09/10 04:59:05;;;;;;;36.20;33.75;;;;;;;14.52;100.00;100965.50;5081955;28;20048;-75
2022/09/10 05:01:30;;;;;;;38.40;35.38;;;;;;;14.53;100.00;100972.50;5075018;28;20443;-75
2022/09/10 05:03:56;;;;;;;32.28;30.15;;;;;;;14.50;100.00;100958.72;5079904;28;20067;-75
2022/09/10 05:06:22;;;;;;;34.03;31.77;;;;;;;14.70;100.00;100986.56;5078932;28;20077;-75
2022/09/10 05:08:47;;;;;;;36.45;33.55;;;;;;;14.73;100.00;100983.56;5076834;28;20499;-75
2022/09/10 05:11:13;;;;;;;36.05;32.95;;;;;;;14.77;100.00;100982.22;5077634;28;20123;-75
2022/09/10 05:13:38;;;;;;;35.45;33.03;;;;;;;14.87;100.00;100981.16;5082327;28;20063;-75
2022/09/10 05:16:04;;;;;;;39.95;37.00;;;;;;;14.90;100.00;100980.81;5067167;28;20047;-75
2022/09/10 05:18:29;;;;;;;37.97;35.08;;;;;;;14.82;100.00;100985.16;5075661;28;20028;-75
2022/09/10 05:20:55;;;;;;;39.30;36.33;;;;;;;14.85;100.00;100983.16;5070629;28;20024;-75
2022/09/10 05:23:20;;;;;;;38.67;36.00;;;;;;;14.84;100.00;100977.03;5074000;28;20434;-75
2022/09/10 05:25:47;;;;;;;36.45;33.55;;;;;;;14.99;100.00;100995.72;5073982;28;20047;-75
2022/09/10 05:28:14;;;;;;;37.47;34.63;;;;;;;14.98;100.00;100986.91;5072161;28;20119;-75
2022/09/10 05:30:40;;;;;;;39.88;37.10;;;;;;;15.06;100.00;100986.03;5076895;28;20047;-74
2022/09/10 05:33:06;;;;;;;44.30;41.55;;;;;;;15.15;100.00;101000.91;5072931;28;20511;-74
2022/09/10 05:35:32;;;;;;;42.38;39.47;;;;;;;15.10;100.00;100997.97;5074799;28;20053;-74
2022/09/10 05:37:58;;;;;;;43.70;40.72;;;;;;;15.04;100.00;100997.84;5077840;28;20032;-75
2022/09/10 05:40:24;;;;;;;39.40;36.65;;;;;;;14.90;100.00;100983.47;5079936;28;20024;-72
2022/09/10 05:42:49;;;;;;;39.10;36.15;;;;;;;14.97;100.00;100992.41;5081400;28;20027;-73
2022/09/10 05:45:18;;;;;;;38.20;35.78;;;;;;;15.04;100.00;101003.97;5085304;28;20032;-73
2022/09/10 05:47:43;;;;;;;41.72;39.00;;;;;;;15.02;100.00;101009.47;5087457;28;20028;-72
2022/09/10 05:50:10;;;;;;;37.35;34.75;;;;;;;15.05;100.00;101008.31;5091196;28;20073;-72
2022/09/10 05:52:35;;;;;;;37.05;34.00;;;;;;;15.02;100.00;101005.97;5088705;28;20036;-72
2022/09/10 05:55:01;;;;;;;38.17;35.10;;;;;;;15.02;100.00;101006.81;5096996;28;20036;-72
2022/09/10 05:57:26;;;;;;;37.42;34.83;;;;;;;14.96;100.00;100985.41;5092119;28;20393;-72
2022/09/10 05:59:51;;;;;;;40.17;37.22;;;;;;;14.98;100.00;100994.03;5094188;28;20081;-72
2022/09/10 06:02:18;;;;;;;40.30;36.95;;;;;;;14.97;100.00;100998.53;5086381;28;20025;-74
2022/09/10 06:04:45;;;;;;;38.03;34.55;;;;;;;15.01;100.00;101012.31;5091334;28;20047;-73
2022/09/10 06:07:10;;;;;;;35.80;32.88;;;;;;;15.07;100.00;101019.59;5094324;28;20027;-73
2022/09/10 06:09:36;;;;;;;40.13;37.08;;;;;;;14.94;100.00;101006.03;5084891;28;20008;-73
2022/09/10 06:12:02;;;;;;;33.70;31.00;;;;;;;14.80;100.00;100997.78;5089802;28;20028;-73
2022/09/10 06:14:27;;;;;;;35.88;33.53;;;;;;;14.88;100.00;101020.84;5095961;28;20032;-72
2022/09/10 06:16:54;;;;;;;35.25;32.25;;;;;;;14.75;100.00;101005.47;5099816;28;20097;-73
2022/09/10 06:19:20;;;;;;;37.10;34.35;;;;;;;14.75;100.00;101021.41;5082125;28;20044;-73
2022/09/10 06:21:48;;;;;;;34.42;32.08;;;;;;;14.87;100.00;101015.69;5094547;28;20044;-73
2022/09/10 06:24:14;;;;;;;34.55;31.73;;;;;;;14.77;100.00;101015.91;5092558;28;20028;-73
2022/09/10 06:26:40;;;;;;;36.20;33.53;;;;;;;14.87;100.00;101034.28;5092939;28;20032;-73
2022/09/10 06:29:05;;;;;;;33.13;30.48;;;;;;;14.92;100.00;101042.59;5087875;28;20037;-73
2022/09/10 06:31:31;;;;;;;35.17;32.25;;;;;;;15.01;100.00;101045.03;5093704;28;20053;-73
2022/09/10 06:33:56;;;;;;;32.85;30.30;;;;;;;15.09;100.00;101035.34;5096221;28;20076;-73
2022/09/10 06:36:22;;;;;;;36.75;33.45;;;;;;;15.18;100.00;101048.44;5095821;28;20031;-72
2022/09/10 06:38:48;;;;;;;29.77;27.55;;;;;;;15.33;100.00;101039.69;5094298;28;20105;-72
2022/09/10 06:41:15;;;;;;;35.00;32.33;;;;;;;15.39;100.00;101038.97;5081299;28;20220;-72
2022/09/10 06:43:41;;;;;;;40.53;37.92;;;;;;;15.42;100.00;101042.13;5094968;28;20050;-73
2022/09/10 06:46:12;;;;;;;39.92;36.83;;;;;;;15.49;100.00;101044.91;5088988;28;20100;-74
2022/09/10 06:48:39;;;;;;;42.25;39.38;;;;;;;15.62;100.00;101055.78;5099794;28;20017;-73
2022/09/10 06:51:07;;;;;;;43.53;39.85;;;;;;;15.61;100.00;101047.97;5094706;28;20016;-73
2022/09/10 06:53:33;;;;;;;39.55;36.72;;;;;;;15.61;100.00;101058.59;5085558;28;20017;-72
2022/09/10 06:56:00;;;;;;;40.90;38.22;;;;;;;15.62;100.00;101050.44;5088498;28;20031;-73
2022/09/10 06:58:27;;;;;;;39.30;35.95;;;;;;;15.72;100.00;101060.03;5096870;28;20012;-73
2022/09/10 07:00:52;;;;;;;40.10;37.67;;;;;;;15.76;100.00;101059.50;5091480;28;20084;-73
2022/09/10 07:03:19;;;;;;;39.78;37.30;;;;;;;15.91;100.00;101070.19;5087559;28;20043;-73
2022/09/10 07:05:45;;;;;;;36.63;34.05;;;;;;;15.96;100.00;101059.00;5094680;28;20032;-73
2022/09/10 07:08:21;;;;;;;39.78;37.05;;;;;;;16.12;100.00;101072.19;5090625;28;20097;-74
2022/09/10 07:10:46;;;;;;;41.45;38.17;;;;;;;16.02;100.00;101077.75;5091799;28;20060;-74
2022/09/10 07:13:12;;;;;;;40.72;38.20;;;;;;;15.89;100.00;101072.22;5068639;28;20025;-74
2022/09/10 07:15:45;;;;;;;40.03;37.75;;;;;;;15.84;100.00;101071.94;5061116;28;20027;-74
2022/09/10 07:18:13;;;;;;;48.25;45.22;;;;;;;15.72;100.00;101062.69;5095706;28;20044;-73
2022/09/10 07:20:42;;;;;;;44.42;41.85;;;;;;;15.82;100.00;101082.75;5080538;28;20224;-73
2022/09/10 07:23:12;;;;;;;38.50;36.08;;;;;;;15.89;100.00;101076.72;5092128;28;20020;-73
2022/09/10 07:25:38;;;;;;;41.13;38.85;;;;;;;15.79;100.00;101066.31;5096189;28;20040;-73
2022/09/10 07:28:04;;;;;;;43.83;41.03;;;;;;;15.76;100.00;101074.66;5087886;28;20108;-74
2022/09/10 07:30:30;;;;;;;46.45;43.53;;;;;;;15.67;100.00;101057.06;5098329;28;20096;-74
2022/09/10 07:32:55;;;;;;;42.22;39.83;;;;;;;15.62;100.00;101069.06;5092176;28;20049;-74
2022/09/10 07:35:21;;;;;;;41.65;39.05;;;;;;;15.71;100.00;101061.88;5100130;28;20051;-74
2022/09/10 07:37:46;;;;;;;42.38;39.30;;;;;;;15.99;100.00;101088.78;5092093;28;20037;-74
2022/09/10 07:40:12;;;;;;;40.85;38.25;;;;;;;16.11;100.00;101091.00;5092944;28;20025;-73
2022/09/10 07:42:38;;;;;;;44.20;41.53;;;;;;;16.07;100.00;101101.19;5060678;28;20027;-73
2022/09/10 07:45:04;;;;;;;48.10;45.00;;;;;;;16.12;100.00;101093.47;5089694;28;20036;-73
2022/09/10 07:47:32;;;;;;;44.20;41.47;;;;;;;16.24;100.00;101096.53;5094683;28;20039;-73
2022/09/10 07:49:58;;;;;;;44.72;42.13;;;;;;;16.34;100.00;101088.28;5082441;28;20494;-73
2022/09/10 07:52:23;;;;;;;49.67;46.67;;;;;;;16.21;100.00;101099.56;5095535;28;20029;-75
2022/09/10 07:54:48;;;;;;;56.75;53.97;;;;;;;16.23;100.00;101100.22;5098083;28;20050;-74
2022/09/10 07:57:14;;;;;;;47.83;45.22;;;;;;;15.87;100.00;101050.25;5080160;28;20035;-74
2022/09/10 07:59:40;;;;;;;52.22;49.22;;;;;;;16.20;100.00;101095.22;5097376;28;20103;-73
2022/09/10 08:02:05;;;;;;;49.75;46.92;;;;;;;16.40;100.00;101112.34;5078011;28;20021;-73
2022/09/10 08:04:32;;;;;;;50.58;47.97;;;;;;;16.49;100.00;101118.44;5083458;28;20028;-73
2022/09/10 08:06:57;;;;;;;45.22;42.20;;;;;;;16.35;100.00;101114.75;5100582;28;20103;-73
2022/09/10 08:09:24;;;;;;;46.97;44.28;;;;;;;16.19;100.00;101085.59;5078854;28;20074;-73
2022/09/10 08:11:50;;;;;;;43.92;41.40;;;;;;;16.48;100.00;101123.94;5093059;28;20035;-73
2022/09/10 08:14:15;;;;;;;44.67;42.10;;;;;;;16.40;100.00;101100.88;5097042;28;20055;-73
2022/09/10 08:16:41;;;;;;;41.75;39.30;;;;;;;16.59;100.00;101129.66;5074648;28;20056;-73
2022/09/10 08:19:08;;;;;;;35.65;33.40;;;;;;;16.37;100.00;101110.03;5092259;28;20024;-73
2022/09/10 08:21:34;;;;;;;42.08;39.58;;;;;;;16.37;100.00;101095.91;5081326;28;20025;-74
2022/09/10 08:24:01;;;;;;;39.47;37.20;;;;;;;16.77;100.00;101133.81;5076536;28;20033;-73
2022/09/10 08:26:28;;;;;;;38.00;35.75;;;;;;;16.68;100.00;101119.75;5097772;28;20024;-75
2022/09/10 08:28:55;;;;;;;38.03;35.47;;;;;;;16.77;100.00;101144.47;5099699;28;20371;-74
2022/09/10 08:31:21;;;;;;;34.30;32.05;;;;;;;16.64;100.00;101140.59;5100741;28;20029;-74
2022/09/10 08:33:49;;;;;;;36.42;34.05;;;;;;;16.65;100.00;101141.41;5080304;28;20094;-74
2022/09/10 08:36:15;;;;;;;38.30;36.03;;;;;;;16.12;100.00;101032.25;5091457;28;20021;-74
2022/09/10 08:38:42;;;;;;;36.35;34.28;;;;;;;16.74;100.00;101118.97;5103989;28;20024;-74
2022/09/10 08:41:27;;;;;;;40.50;37.85;;;;;;;17.19;100.00;101157.16;5096930;28;20016;-73
2022/09/10 08:43:56;;;;;;;41.05;38.55;;;;;;;17.17;100.00;101161.84;5100255;28;20110;-73
2022/09/10 08:46:25;;;;;;;34.80;32.33;;;;;;;16.76;100.00;101095.63;5097617;28;20026;-73
2022/09/10 08:49:07;;;;;;;34.70;32.65;;;;;;;17.45;100.00;101172.66;5096343;28;20032;-73
2022/09/10 08:51:43;;;;;;;30.70;28.80;;;;;;;17.48;100.00;101158.94;5118869;28;20031;-73
2022/09/10 08:54:18;;;;;;;27.05;25.42;;;;;;;17.53;100.00;101171.72;5098056;28;20024;-73
2022/09/10 08:56:46;;;;;;;31.67;29.52;;;;;;;17.64;100.00;101176.56;5093714;28;20028;-73
2022/09/10 08:59:29;;;;;;;25.48;23.38;;;;;;;17.70;100.00;101188.31;5082066;28;20024;-73
2022/09/10 09:01:59;;;;;;;27.45;25.10;;;;;;;17.51;100.00;101156.91;5099008;28;20050;-73
2022/09/10 09:04:41;;;;;;;23.85;22.20;;;;;;;17.73;100.00;101193.28;5092594;28;20483;-73
2022/09/10 09:07:18;;;;;;;20.73;18.92;;;;;;;17.58;100.00;101189.84;5089519;28;20024;-74
2022/09/10 09:09:47;;;;;;;18.50;17.00;;;;;;;17.36;100.00;101191.63;5093358;28;20016;-74
2022/09/10 09:12:15;;;;;;;23.42;21.73;;;;;;;17.26;100.00;101190.06;5100445;28;20020;-74
2022/09/10 09:15:10;;;;;;;25.40;23.55;;;;;;;17.14;100.00;101194.22;5099995;28;20024;-74
2022/09/10 09:18:09;;;;;;;29.20;27.15;;;;;;;17.04;100.00;101196.34;5092183;28;20163;-74
2022/09/10 09:20:43;;;;;;;28.33;26.52;;;;;;;17.06;100.00;101197.81;5079302;28;20021;-74
2022/09/10 09:23:18;;;;;;;30.00;27.63;;;;;;;16.93;100.00;101181.63;5098926;28;20330;-75
2022/09/10 09:26:02;;;;;;;32.70;30.92;;;;;;;17.04;100.00;101193.66;5088343;28;20025;-75
2022/09/10 09:28:56;;;;;;;34.25;31.95;;;;;;;17.09;100.00;101196.59;5093119;28;20020;-73
2022/09/10 09:31:25;;;;;;;32.55;30.25;;;;;;;17.05;100.00;101200.69;5091539;28;20057;-73
2022/09/10 09:34:00;;;;;;;30.42;28.23;;;;;;;16.98;100.00;101205.06;5095339;28;20052;-73
2022/09/10 09:36:33;;;;;;;34.20;31.80;;;;;;;16.92;100.00;101205.78;5099557;28;20016;-75
2022/09/10 09:39:02;;;;;;;31.50;29.42;;;;;;;16.86;100.00;101202.84;5096793;28;20039;-74
2022/09/10 09:41:41;;;;;;;33.60;31.70;;;;;;;16.96;100.00;101210.59;5095125;28;20028;-73
2022/09/10 09:44:37;;;;;;;32.85;30.98;;;;;;;16.91;100.00;101172.97;5098832;28;20028;-72
2022/09/10 09:47:03;;;;;;;27.73;26.10;;;;;;;16.90;100.00;101179.34;5094516;28;20078;-73
2022/09/10 09:49:28;;;;;;;26.05;24.73;;;;;;;16.87;100.00;101161.03;5102811;28;20056;-73
2022/09/10 09:51:54;;;;;;;27.70;26.08;;;;;;;17.37;100.00;101217.28;5094326;28;20039;-73
2022/09/10 09:54:27;;;;;;;27.85;26.27;;;;;;;17.61;100.00;101218.81;5093253;28;20024;-73
2022/09/10 09:56:57;;;;;;;23.80;22.23;;;;;;;17.78;99.21;101222.09;5085250;28;20035;-74
2022/09/10 09:59:29;;;;;;;19.50;18.30;;;;;;;17.82;98.94;101221.56;5088910;28;20017;-73
2022/09/10 10:02:05;;;;;;;21.13;19.52;;;;;;;18.01;97.38;101222.78;5087500;28;20008;-74
2022/09/10 10:04:32;;;;;;;16.55;15.20;;;;;;;17.95;97.48;101223.53;5095832;28;20036;-73
2022/09/10 10:07:00;;;;;;;16.08;14.63;;;;;;;17.98;96.75;101223.16;5091805;28;20128;-73
2022/09/10 10:09:28;;;;;;;14.60;13.60;;;;;;;17.82;95.39;101199.38;5088980;28;20017;-73
2022/09/10 10:11:56;;;;;;;13.00;12.20;;;;;;;18.15;96.58;101231.75;5095949;28;20021;-73
2022/09/10 10:14:25;;;;;;;15.27;14.00;;;;;;;18.36;95.55;101219.44;5098190;28;20035;-73
2022/09/10 10:16:54;;;;;;;14.18;13.13;;;;;;;18.52;93.08;101229.00;5098411;28;20463;-73
2022/09/10 10:19:38;;;;;;;15.30;14.10;;;;;;;18.49;92.80;101209.66;5093339;28;20059;-74
2022/09/10 10:22:13;;;;;;;15.07;13.90;;;;;;;18.98;94.57;101223.19;5092909;28;20046;-74
2022/09/10 10:24:38;;;;;;;15.25;14.23;;;;;;;19.28;94.40;101219.25;5090516;28;20023;-74
2022/09/10 10:27:04;;;;;;;16.52;15.38;;;;;;;19.44;92.60;101217.25;5094211;28;20233;-74
2022/09/10 10:29:29;;;;;;;13.55;12.52;;;;;;;19.46;90.68;101199.16;5085852;28;20312;-74
2022/09/10 10:31:55;;;;;;;12.05;10.95;;;;;;;19.67;90.35;101227.66;5072387;28;20037;-74
2022/09/10 10:34:33;;;;;;;11.60;10.73;;;;;;;19.68;89.76;101222.06;5092302;28;20052;-74
2022/09/10 10:37:42;;;;;;;11.63;10.80;;;;;;;19.64;88.13;101228.88;5084004;28;20048;-74
2022/09/10 10:40:22;;;;;;;10.93;10.02;;;;;;;19.64;89.59;101223.53;5002919;28;20073;-74
2022/09/10 10:43:06;;;;;;;10.55;9.68;;;;;;;19.82;88.37;101230.22;5019133;28;20042;-73
2022/09/10 10:46:03;;;;;;;12.40;11.20;;;;;;;19.70;87.48;101227.28;5002295;28;20026;-73
2022/09/10 10:48:47;;;;;;;11.57;10.48;;;;;;;19.79;86.77;101222.56;5002310;28;20080;-74
2022/09/10 10:51:24;;;;;;;10.50;9.70;;;;;;;19.82;88.85;101209.59;5017944;28;20034;-74
2022/09/10 10:54:27;;;;;;;11.38;10.15;;;;;;;21.10;90.91;101227.34;5016379;28;20593;-74
2022/09/10 10:57:21;;;;;;;13.70;12.60;;;;;;;23.91;78.85;101234.84;5016775;28;20080;-74
2022/09/10 10:59:59;;;;;;;12.13;11.10;;;;;;;24.50;70.77;101230.47;5010030;28;20045;-74
2022/09/10 11:02:39;;;;;;;11.13;10.27;;;;;;;24.74;71.27;101225.06;5008114;28;20037;-75
2022/09/10 11:05:37;;;;;;;10.32;9.52;;;;;;;24.10;69.65;101209.47;4987766;28;20429;-75
2022/09/10 11:08:07;;;;;;;9.52;7.78;;;;;;;21.90;75.67;101232.44;5003913;28;20089;-74
2022/09/10 11:10:44;;;;;;;10.02;9.15;;;;;;;21.34;78.42;101218.63;5011046;28;20034;-74
2022/09/10 11:13:38;;;;;;;9.05;8.35;;;;;;;21.32;79.70;101209.94;5010462;28;20141;-74
2022/09/10 11:16:19;;;;;;;7.80;7.15;;;;;;;21.34;81.08;101210.56;5051161;28;20064;-75